Time;durP1;ratioP1;P1;durP2;ratioP2;P2;SDS_P1;SDS_P2;PMS_P1;PMS_P2;Temp;Humidity;BMP_temperature;BMP_pressure;BME280_temperature;BME280_humidity;BME280_pressure;Samples;Min_cycle;Max_cycle;Signal;HPM_P1;HPM_P2
2021/06/03 00:02:09;;;;;;;6.90;6.20;;;;;;;13.77;72.31;101594.84;5079365;28;20070;-80
2021/06/03 00:04:36;;;;;;;6.57;5.93;;;;;;;13.84;71.33;101600.06;5069913;28;20063;-81
2021/06/03 00:07:03;;;;;;;6.85;5.85;;;;;;;13.75;71.17;101609.94;5067576;23;20987;-79
2021/06/03 00:09:30;;;;;;;6.80;6.10;;;;;;;13.76;70.75;101601.06;5028641;28;20033;-81
2021/06/03 00:11:57;;;;;;;7.65;5.68;;;;;;;13.70;70.44;101609.13;5017810;28;20422;-82
2021/06/03 00:14:24;;;;;;;8.55;5.90;;;;;;;13.71;69.49;101600.28;5015525;28;20045;-81
2021/06/03 00:16:51;;;;;;;6.93;5.82;;;;;;;13.68;71.27;101605.66;5034321;28;20609;-82
2021/06/03 00:19:17;;;;;;;7.15;6.43;;;;;;;13.77;68.77;101609.91;5030459;28;20045;-82
2021/06/03 00:21:44;;;;;;;7.22;6.22;;;;;;;13.69;71.48;101607.41;5033844;28;20045;-82
2021/06/03 00:24:12;;;;;;;7.03;6.22;;;;;;;13.56;72.09;101608.53;5017496;28;20623;-82
2021/06/03 00:26:39;;;;;;;7.85;6.22;;;;;;;13.64;70.91;101611.06;5031536;28;20040;-81
2021/06/03 00:29:06;;;;;;;7.18;5.70;;;;;;;13.50;72.39;101601.53;5016752;28;20037;-81
2021/06/03 00:31:33;;;;;;;8.48;5.93;;;;;;;13.49;73.39;101598.91;5034939;28;20045;-82
2021/06/03 00:34:00;;;;;;;7.57;6.40;;;;;;;13.48;73.00;101606.00;5017954;28;20094;-80
2021/06/03 00:36:27;;;;;;;7.60;6.05;;;;;;;13.38;72.72;101608.84;5018949;28;20075;-82
2021/06/03 00:38:54;;;;;;;7.40;6.25;;;;;;;13.32;73.02;101609.81;5036271;28;20491;-81
2021/06/03 00:41:20;;;;;;;7.22;6.25;;;;;;;13.17;73.85;101612.69;5028791;28;20037;-82
2021/06/03 00:43:47;;;;;;;6.70;6.10;;;;;;;13.23;72.58;101608.19;5032908;28;20037;-82
2021/06/03 00:46:14;;;;;;;6.25;5.65;;;;;;;13.21;71.79;101619.75;5017085;28;20130;-80
2021/06/03 00:48:41;;;;;;;6.68;5.90;;;;;;;13.15;72.33;101615.38;5031593;28;20041;-81
2021/06/03 00:51:09;;;;;;;7.38;6.15;;;;;;;13.13;72.21;101617.19;5033785;28;20083;-81
2021/06/03 00:53:37;;;;;;;7.45;5.93;;;;;;;12.93;73.91;101614.81;5016889;28;20069;-82
2021/06/03 00:56:05;;;;;;;7.25;6.50;;;;;;;12.94;73.75;101605.94;5028696;28;20061;-80
2021/06/03 00:58:34;;;;;;;8.45;7.55;;;;;;;12.87;74.29;101614.94;5016161;28;20048;-83
2021/06/03 01:01:01;;;;;;;7.05;5.90;;;;;;;12.84;74.45;101614.06;5017159;28;20412;-82
2021/06/03 01:03:28;;;;;;;8.27;6.45;;;;;;;12.82;74.50;101618.53;5032281;28;20048;-82
2021/06/03 01:06:06;;;;;;;7.10;6.40;;;;;;;12.76;75.13;101624.78;5050631;28;20037;-82
2021/06/03 01:08:47;;;;;;;6.45;5.85;;;;;;;12.76;75.58;101619.50;5016499;28;20710;-80
2021/06/03 01:11:17;;;;;;;8.05;6.78;;;;;;;12.77;74.92;101629.19;5050609;28;20048;-82
2021/06/03 01:13:47;;;;;;;8.18;6.65;;;;;;;12.62;76.97;101624.13;5050742;28;20041;-83
2021/06/03 01:16:15;;;;;;;7.40;6.22;;;;;;;12.55;76.15;101622.44;5043980;28;20041;-81
2021/06/03 01:18:42;;;;;;;8.40;6.63;;;;;;;12.53;76.05;101626.91;5014197;28;20048;-81
2021/06/03 01:21:15;;;;;;;9.65;7.03;;;;;;;12.56;75.31;101618.91;5018259;28;20037;-79
2021/06/03 01:24:10;;;;;;;7.45;6.60;;;;;;;12.56;74.54;101626.84;5028515;28;20045;-81
2021/06/03 01:26:36;;;;;;;8.35;6.75;;;;;;;12.40;77.09;101628.81;5033219;28;20478;-83
2021/06/03 01:29:04;;;;;;;7.25;6.47;;;;;;;12.40;75.85;101626.16;5016010;28;20534;-82
2021/06/03 01:31:31;;;;;;;10.75;7.75;;;;;;;12.41;75.90;101622.63;5017433;28;20490;-83
2021/06/03 01:33:58;;;;;;;8.52;6.72;;;;;;;12.40;76.08;101628.81;5013277;28;20052;-80
2021/06/03 01:36:25;;;;;;;7.82;6.13;;;;;;;12.18;78.24;101622.00;5015243;28;20041;-80
2021/06/03 01:38:51;;;;;;;7.28;6.57;;;;;;;12.18;77.88;101628.19;5029453;28;20128;-78
2021/06/03 01:41:18;;;;;;;8.48;6.47;;;;;;;12.12;77.62;101625.63;5032894;28;20099;-79
2021/06/03 01:43:46;;;;;;;7.22;6.50;;;;;;;12.13;77.42;101623.84;5013933;28;21049;-79
2021/06/03 01:46:14;;;;;;;8.00;6.38;;;;;;;12.13;77.37;101630.03;5016576;28;20045;-81
2021/06/03 01:48:41;;;;;;;11.05;7.07;;;;;;;12.15;77.25;101622.06;5027444;28;20073;-78
2021/06/03 01:51:10;;;;;;;8.05;7.25;;;;;;;12.13;78.40;101632.69;5031190;28;20153;-79
2021/06/03 01:53:38;;;;;;;8.18;6.57;;;;;;;12.01;79.14;101633.69;5032150;28;20049;-80
2021/06/03 01:56:08;;;;;;;9.50;6.53;;;;;;;11.99;78.20;101626.66;5045253;28;20048;-80
2021/06/03 01:58:34;;;;;;;8.27;6.50;;;;;;;11.93;78.66;101624.06;5030139;28;20064;-79
2021/06/03 02:01:01;;;;;;;7.50;5.97;;;;;;;11.87;78.63;101629.44;5029878;28;20037;-80
2021/06/03 02:03:28;;;;;;;8.75;6.72;;;;;;;11.86;78.83;101635.63;5015000;28;20029;-79
2021/06/03 02:05:55;;;;;;;9.18;7.20;;;;;;;11.79;79.33;101635.66;5022404;28;20572;-79
2021/06/03 02:08:22;;;;;;;7.78;6.40;;;;;;;11.69;80.02;101634.00;5027403;28;20060;-80
2021/06/03 02:10:49;;;;;;;8.05;7.15;;;;;;;11.77;79.97;101636.53;5015504;28;20080;-80
2021/06/03 02:13:37;;;;;;;8.20;7.40;;;;;;;11.72;80.80;101633.06;5030474;28;20048;-79
2021/06/03 02:16:30;;;;;;;7.50;6.75;;;;;;;11.73;81.03;101641.00;5048750;28;20048;-78
2021/06/03 02:19:09;;;;;;;9.40;7.27;;;;;;;11.71;80.58;101640.16;5025319;28;20041;-79
2021/06/03 02:21:37;;;;;;;7.35;6.53;;;;;;;11.64;80.23;101638.44;5032702;28;20161;-80
2021/06/03 02:24:05;;;;;;;7.45;6.65;;;;;;;11.53;81.96;101642.97;5027818;28;20045;-80
2021/06/03 02:26:36;;;;;;;8.05;7.20;;;;;;;11.48;81.36;101643.00;5027322;28;20040;-80
2021/06/03 02:29:03;;;;;;;8.10;7.03;;;;;;;11.47;81.18;101641.25;5045523;28;20041;-79
2021/06/03 02:31:32;;;;;;;7.25;6.47;;;;;;;11.48;80.52;101648.28;5015712;28;20049;-80
2021/06/03 02:33:59;;;;;;;7.95;6.25;;;;;;;11.39;80.89;101645.72;5033754;28;20497;-80
2021/06/03 02:36:27;;;;;;;8.18;6.50;;;;;;;11.45;80.22;101645.66;5014836;28;20041;-79
2021/06/03 02:38:53;;;;;;;13.90;7.72;;;;;;;11.41;81.02;101645.69;5027841;28;20062;-81
2021/06/03 02:41:20;;;;;;;9.52;7.13;;;;;;;11.36;80.92;101640.47;5016031;28;20041;-80
2021/06/03 02:43:48;;;;;;;7.28;6.57;;;;;;;11.31;81.29;101647.53;5029476;28;20037;-80
2021/06/03 02:46:17;;;;;;;8.90;7.65;;;;;;;11.27;81.07;101646.69;5026952;28;20048;-80
2021/06/03 02:48:44;;;;;;;8.13;6.65;;;;;;;11.23;82.58;101650.25;5027191;28;20147;-79
2021/06/03 02:51:10;;;;;;;7.43;6.68;;;;;;;11.15;83.15;101646.78;5046250;28;20091;-80
2021/06/03 02:53:38;;;;;;;24.95;8.52;;;;;;;11.16;83.02;101656.47;5010582;28;20048;-80
2021/06/03 02:56:06;;;;;;;11.35;7.50;;;;;;;11.12;83.86;101654.75;5030749;28;20087;-79
2021/06/03 02:58:33;;;;;;;8.23;6.22;;;;;;;11.16;83.96;101656.47;5029749;28;20045;-80
2021/06/03 03:01:00;;;;;;;8.55;6.38;;;;;;;11.14;84.65;101660.88;5014987;28;20566;-82
2021/06/03 03:03:27;;;;;;;9.70;7.47;;;;;;;11.20;83.46;101646.75;5030449;28;20049;-79
2021/06/03 03:05:53;;;;;;;7.93;6.53;;;;;;;11.16;82.38;101658.22;5031326;28;20553;-80
2021/06/03 03:08:20;;;;;;;9.18;7.40;;;;;;;11.13;83.09;101656.50;5048293;28;20044;-80
2021/06/03 03:10:50;;;;;;;8.10;6.78;;;;;;;11.12;84.38;101657.38;5047513;28;20068;-82
2021/06/03 03:13:17;;;;;;;11.55;8.38;;;;;;;11.17;84.23;101662.63;5032239;28;20045;-81
2021/06/03 03:15:44;;;;;;;8.00;6.95;;;;;;;11.08;85.38;101662.69;5029269;28;20041;-81
2021/06/03 03:18:11;;;;;;;8.45;6.80;;;;;;;11.13;84.90;101656.50;5029712;28;20060;-81
2021/06/03 03:20:39;;;;;;;8.70;6.43;;;;;;;11.16;84.08;101664.41;5018079;28;20090;-80
2021/06/03 03:23:07;;;;;;;7.82;6.65;;;;;;;11.13;84.94;101668.84;5018974;28;20037;-79
2021/06/03 03:25:34;;;;;;;7.85;7.00;;;;;;;11.20;84.03;101665.28;5017924;28;20040;-79
2021/06/03 03:28:02;;;;;;;8.18;6.22;;;;;;;11.23;83.63;101663.47;5019504;28;20103;-81
2021/06/03 03:30:30;;;;;;;8.27;6.65;;;;;;;11.18;84.99;101665.28;5033712;28;20037;-81
2021/06/03 03:32:56;;;;;;;8.80;6.82;;;;;;;11.16;84.96;101671.44;5019396;28;20126;-80
2021/06/03 03:35:23;;;;;;;8.98;6.65;;;;;;;11.24;85.26;101667.88;5034113;28;20052;-81
2021/06/03 03:37:50;;;;;;;7.90;7.10;;;;;;;11.27;85.60;101667.88;5032284;28;20049;-80
2021/06/03 03:40:20;;;;;;;8.82;7.15;;;;;;;11.21;84.84;101677.59;5031320;28;20284;-80
2021/06/03 03:42:47;;;;;;;8.02;6.57;;;;;;;11.18;85.64;101672.31;5025900;28;20124;-81
2021/06/03 03:45:16;;;;;;;7.90;7.10;;;;;;;11.21;86.39;101669.66;5031660;28;20045;-80
2021/06/03 03:47:46;;;;;;;7.97;7.03;;;;;;;11.19;86.28;101669.69;5017943;28;20091;-80
2021/06/03 03:50:15;;;;;;;9.32;6.53;;;;;;;11.30;85.35;101674.00;5033204;28;20087;-80
2021/06/03 03:52:43;;;;;;;8.55;6.78;;;;;;;11.28;86.17;101666.97;5041679;28;20509;-82
2021/06/03 03:55:11;;;;;;;8.35;7.28;;;;;;;11.34;86.71;101673.09;5034075;28;20045;-81
2021/06/03 03:57:38;;;;;;;8.40;6.82;;;;;;;11.32;85.92;101669.59;5049636;28;20566;-81
2021/06/03 04:00:11;;;;;;;9.25;7.85;;;;;;;11.33;87.38;101666.03;5023438;28;20037;-80
2021/06/03 04:02:38;;;;;;;8.05;6.82;;;;;;;11.36;87.54;101677.50;5050555;28;20059;-81
2021/06/03 04:05:05;;;;;;;9.27;6.65;;;;;;;11.33;87.05;101679.28;5034363;28;20094;-80
2021/06/03 04:07:32;;;;;;;7.15;6.45;;;;;;;11.42;86.34;101674.78;5035137;28;20080;-80
2021/06/03 04:09:59;;;;;;;7.38;6.38;;;;;;;11.42;86.85;101666.84;5033322;28;20474;-81
2021/06/03 04:12:25;;;;;;;8.73;7.03;;;;;;;11.46;86.88;101668.59;5034101;28;20041;-80
2021/06/03 04:14:52;;;;;;;10.57;7.18;;;;;;;11.51;87.37;101664.13;5034886;28;20517;-80
2021/06/03 04:17:19;;;;;;;7.80;6.65;;;;;;;11.50;88.37;101674.72;5049364;28;20099;-81
2021/06/03 04:19:46;;;;;;;7.95;6.88;;;;;;;11.66;85.16;101671.06;5015423;28;20041;-79
2021/06/03 04:22:12;;;;;;;9.25;7.40;;;;;;;11.66;86.93;101668.41;5016398;28;20088;-79
2021/06/03 04:24:39;;;;;;;7.85;6.30;;;;;;;11.75;85.04;101664.81;5034092;28;20562;-81
2021/06/03 04:27:06;;;;;;;7.75;6.50;;;;;;;11.79;86.47;101663.91;5019361;28;20083;-82
2021/06/03 04:29:32;;;;;;;9.38;6.53;;;;;;;11.97;81.87;101663.75;5050454;28;20041;-79
2021/06/03 04:31:59;;;;;;;8.40;6.93;;;;;;;12.08;82.01;101663.63;5031370;28;20494;-80
2021/06/03 04:34:26;;;;;;;8.75;6.60;;;;;;;12.13;82.19;101675.06;5018052;28;20041;-79
2021/06/03 04:36:52;;;;;;;9.05;7.32;;;;;;;12.21;83.49;101674.97;5033444;28;20406;-79
2021/06/03 04:39:19;;;;;;;10.68;6.78;;;;;;;12.42;81.73;101673.84;5066297;28;20068;-79
2021/06/03 04:41:46;;;;;;;8.93;6.82;;;;;;;12.40;80.88;101676.53;5034028;28;20064;-80
2021/06/03 04:44:12;;;;;;;8.35;6.20;;;;;;;12.43;78.67;101679.13;5032559;28;20037;-80
2021/06/03 04:46:39;;;;;;;7.32;6.15;;;;;;;12.62;77.66;101680.69;5033117;28;20048;-79
2021/06/03 04:49:06;;;;;;;8.38;6.22;;;;;;;12.62;79.56;101680.69;5031739;28;20524;-78
2021/06/03 04:51:34;;;;;;;9.25;6.72;;;;;;;12.66;79.76;101685.03;5047517;28;20147;-80
2021/06/03 04:54:01;;;;;;;7.47;6.30;;;;;;;12.74;78.60;101681.41;5017862;28;20071;-79
2021/06/03 04:56:28;;;;;;;7.90;6.15;;;;;;;12.83;79.92;101686.59;5017483;28;20094;-79
2021/06/03 04:58:54;;;;;;;9.50;6.30;;;;;;;12.96;80.28;101689.06;5014474;28;20069;-79
2021/06/03 05:01:21;;;;;;;8.38;6.20;;;;;;;13.17;78.51;101687.84;5033707;28;20037;-78
2021/06/03 05:03:48;;;;;;;9.18;6.00;;;;;;;13.17;79.12;101697.59;5033170;28;20045;-78
2021/06/03 05:06:15;;;;;;;7.78;5.88;;;;;;;13.22;76.96;101701.09;5016572;28;20045;-79
2021/06/03 05:08:42;;;;;;;7.75;5.80;;;;;;;13.15;79.90;101700.28;5032099;28;20048;-79
2021/06/03 05:11:08;;;;;;;7.32;6.22;;;;;;;13.45;77.90;101687.47;5034182;28;20212;-80
2021/06/03 05:13:35;;;;;;;7.35;6.00;;;;;;;13.69;76.60;101684.41;5051252;28;20720;-79
2021/06/03 05:16:03;;;;;;;6.72;5.72;;;;;;;13.70;76.85;101693.25;5012637;28;20045;-80
2021/06/03 05:18:29;;;;;;;7.13;5.80;;;;;;;13.74;74.50;101685.22;5017570;28;20059;-79
2021/06/03 05:20:56;;;;;;;6.85;5.82;;;;;;;13.99;71.81;101690.97;5019007;28;20049;-80
2021/06/03 05:23:23;;;;;;;9.27;6.35;;;;;;;13.92;75.49;101689.31;5050112;28;20060;-81
2021/06/03 05:25:50;;;;;;;6.80;5.65;;;;;;;13.87;76.13;101691.16;5032250;28;20102;-79
2021/06/03 05:28:18;;;;;;;9.75;6.28;;;;;;;13.93;76.46;101683.09;5016294;28;20086;-81
2021/06/03 05:30:46;;;;;;;9.18;6.13;;;;;;;14.17;71.12;101694.19;5017408;28;20406;-80
2021/06/03 05:33:12;;;;;;;7.30;6.10;;;;;;;14.22;70.55;101692.34;5067171;28;20430;-80
2021/06/03 05:35:41;;;;;;;8.15;5.80;;;;;;;14.28;70.43;101689.53;5032115;28;20091;-80
2021/06/03 05:38:08;;;;;;;8.77;5.38;;;;;;;14.54;68.97;101689.94;5063864;28;20059;-80
2021/06/03 05:40:37;;;;;;;6.63;5.72;;;;;;;14.72;70.27;101701.13;5054913;28;20088;-80
2021/06/03 05:43:04;;;;;;;8.32;5.70;;;;;;;15.40;65.74;101691.56;5032843;28;20479;-84
2021/06/03 05:45:31;;;;;;;8.23;5.93;;;;;;;16.59;64.43;101698.25;5051728;28;20647;-82
2021/06/03 05:47:58;;;;;;;5.82;5.00;;;;;;;18.24;57.72;101695.59;5029820;28;20980;-81
2021/06/03 05:50:25;;;;;;;7.22;5.10;;;;;;;19.05;53.33;101693.47;5045874;28;20480;-79
2021/06/03 05:52:53;;;;;;;6.93;4.85;;;;;;;20.18;53.15;101696.84;5035818;28;20080;-81
2021/06/03 05:55:21;;;;;;;7.35;4.80;;;;;;;21.71;47.88;101695.03;5050206;28;20575;-80
2021/06/03 05:57:49;;;;;;;5.63;4.95;;;;;;;22.07;44.22;101702.16;5019866;28;20052;-82
2021/06/03 06:00:22;;;;;;;7.90;5.43;;;;;;;21.51;43.49;101701.38;5052033;28;20086;-81
2021/06/03 06:02:54;;;;;;;10.20;4.80;;;;;;;22.50;43.19;101705.31;5056872;28;20102;-80
2021/06/03 06:08:13;;;;;;;7.10;5.28;;;;;;;22.25;45.04;101709.28;5044874;28;20052;-80
2021/06/03 06:10:41;;;;;;;7.72;4.78;;;;;;;21.52;48.96;101710.31;5020817;28;20045;-80
2021/06/03 06:13:10;;;;;;;6.82;4.80;;;;;;;21.35;46.81;101720.09;5040926;28;20049;-83
2021/06/03 06:15:38;;;;;;;7.30;5.22;;;;;;;20.97;48.74;101719.22;5014413;28;20092;-79
2021/06/03 06:18:05;;;;;;;6.45;4.72;;;;;;;20.77;48.79;101724.66;5032190;28;20041;-81
2021/06/03 06:20:34;;;;;;;6.35;4.65;;;;;;;20.34;47.05;101722.97;5055803;28;20037;-80
2021/06/03 06:23:01;;;;;;;5.00;4.18;;;;;;;20.72;47.68;101715.91;5020289;28;20094;-80
2021/06/03 06:25:28;;;;;;;7.53;4.70;;;;;;;20.31;47.37;101723.13;5033787;28;20066;-81
2021/06/03 06:27:56;;;;;;;6.18;5.05;;;;;;;20.11;47.10;101730.25;5036115;28;20044;-81
2021/06/03 06:30:25;;;;;;;6.95;5.38;;;;;;;20.39;47.70;101731.69;5020547;28;20049;-80
2021/06/03 06:32:53;;;;;;;6.03;4.22;;;;;;;20.73;48.00;101726.59;5057845;28;20056;-82
2021/06/03 06:35:24;;;;;;;5.80;4.90;;;;;;;21.09;48.88;101736.56;5035875;28;20129;-81
2021/06/03 06:37:51;;;;;;;6.20;4.35;;;;;;;21.33;48.47;101739.94;5020638;28;20049;-82
2021/06/03 06:40:18;;;;;;;6.47;5.03;;;;;;;21.39;46.53;101731.56;5054662;28;20147;-81
2021/06/03 06:42:50;;;;;;;4.88;4.38;;;;;;;21.23;48.90;101739.47;5040555;28;20437;-84
2021/06/03 06:45:16;;;;;;;6.72;4.78;;;;;;;21.20;44.32;101747.69;5023203;28;20139;-81
2021/06/03 06:47:43;;;;;;;7.05;4.75;;;;;;;21.45;45.26;101739.34;5040876;28;20090;-81
2021/06/03 06:50:11;;;;;;;7.50;4.75;;;;;;;21.24;44.47;101746.59;5007450;28;20049;-81
2021/06/03 06:52:38;;;;;;;6.15;4.38;;;;;;;21.63;46.73;101745.63;5016884;28;20037;-81
2021/06/03 06:55:07;;;;;;;8.55;4.65;;;;;;;21.56;46.39;101738.81;5053348;28;20045;-81
2021/06/03 06:57:34;;;;;;;4.70;4.20;;;;;;;21.88;46.08;101746.16;5050879;28;20055;-79
2021/06/03 07:00:06;;;;;;;4.97;4.47;;;;;;;21.79;46.33;101745.75;5031117;28;20040;-81
2021/06/03 07:02:33;;;;;;;9.82;4.32;;;;;;;22.05;46.68;101747.13;5051210;28;20037;-82
2021/06/03 07:05:00;;;;;;;5.90;5.15;;;;;;;21.91;42.90;101746.00;5033232;28;20045;-82
2021/06/03 07:07:26;;;;;;;5.03;4.15;;;;;;;21.99;44.50;101750.13;5032457;28;20057;-81
2021/06/03 07:09:53;;;;;;;6.78;5.28;;;;;;;21.97;45.76;101757.41;5043949;28;20244;-80
2021/06/03 07:12:20;;;;;;;7.05;4.70;;;;;;;22.12;45.45;101749.47;5018541;28;20150;-79
2021/06/03 07:14:47;;;;;;;5.13;4.60;;;;;;;21.22;43.96;101750.28;5032855;28;20037;-79
2021/06/03 07:17:14;;;;;;;4.68;4.20;;;;;;;21.84;46.78;101755.31;5067972;28;20056;-81
2021/06/03 07:19:43;;;;;;;5.68;4.55;;;;;;;21.56;44.60;101754.94;5031993;28;20044;-83
2021/06/03 07:22:14;;;;;;;7.78;4.40;;;;;;;22.01;44.25;101750.91;5023717;28;20103;-82
2021/06/03 07:24:41;;;;;;;5.28;4.32;;;;;;;21.92;44.64;101752.25;5016778;28;20500;-82
2021/06/03 07:27:08;;;;;;;7.72;4.85;;;;;;;22.15;44.25;101746.59;5039154;28;20053;-80
2021/06/03 07:29:34;;;;;;;7.18;4.40;;;;;;;22.21;42.82;101749.94;5036856;28;20075;-82
2021/06/03 07:32:08;;;;;;;6.40;4.85;;;;;;;22.48;45.32;101753.88;5019745;28;20068;-82
2021/06/03 07:34:38;;;;;;;5.05;4.35;;;;;;;22.53;44.31;101753.59;5050326;28;20564;-82
2021/06/03 07:37:05;;;;;;;5.40;4.35;;;;;;;22.46;42.89;101753.09;5038271;28;20037;-81
2021/06/03 07:39:34;;;;;;;9.30;4.93;;;;;;;22.46;41.55;101756.66;5024676;28;20037;-82
2021/06/03 07:42:01;;;;;;;7.72;4.88;;;;;;;22.64;42.68;101753.94;5032966;28;20037;-80
2021/06/03 07:44:31;;;;;;;7.40;4.95;;;;;;;22.74;42.06;101749.78;5050018;28;20053;-81
2021/06/03 07:46:57;;;;;;;7.20;4.65;;;;;;;22.88;40.13;101749.06;5030062;28;20110;-80
2021/06/03 07:49:26;;;;;;;5.07;4.57;;;;;;;22.91;40.75;101754.28;5031376;28;20120;-79
2021/06/03 07:51:54;;;;;;;5.50;4.47;;;;;;;22.83;40.98;101749.28;5012334;28;20126;-82
2021/06/03 07:54:22;;;;;;;6.45;4.97;;;;;;;23.22;42.47;101740.84;5018960;28;20719;-81
2021/06/03 07:56:50;;;;;;;7.30;4.60;;;;;;;23.23;43.27;101753.38;5038633;28;20037;-82
2021/06/03 07:59:16;;;;;;;6.88;4.40;;;;;;;23.15;40.64;101747.53;5038311;28;20069;-80
2021/06/03 08:01:43;;;;;;;5.38;4.63;;;;;;;22.72;41.78;101746.31;5050298;28;20094;-81
2021/06/03 08:04:17;;;;;;;5.47;4.43;;;;;;;22.81;40.80;101745.81;5016351;28;20055;-81
2021/06/03 08:06:48;;;;;;;5.03;4.32;;;;;;;23.12;41.26;101738.72;5023493;28;20055;-82
2021/06/03 08:09:15;;;;;;;5.00;4.25;;;;;;;23.24;40.61;101732.66;5036852;28;20094;-80
2021/06/03 08:11:44;;;;;;;5.30;4.78;;;;;;;22.85;40.33;101735.75;5037602;28;20059;-82
2021/06/03 08:14:12;;;;;;;5.63;4.60;;;;;;;23.15;40.01;101734.06;5022234;28;20055;-80
2021/06/03 08:16:39;;;;;;;6.40;4.00;;;;;;;23.63;40.84;101731.34;5036484;28;20525;-80
2021/06/03 08:19:08;;;;;;;5.07;4.13;;;;;;;23.98;37.74;101732.88;5052782;28;20049;-80
2021/06/03 08:21:37;;;;;;;5.82;4.03;;;;;;;23.83;38.58;101737.34;5039275;28;20136;-82
2021/06/03 08:24:04;;;;;;;4.68;3.53;;;;;;;24.17;36.25;101734.47;5037853;28;20417;-81
2021/06/03 08:26:33;;;;;;;4.47;4.07;;;;;;;24.15;36.20;101737.25;5015003;28;20041;-81
2021/06/03 08:29:00;;;;;;;7.15;4.65;;;;;;;24.30;34.16;101733.63;5051899;28;20049;-82
2021/06/03 08:31:27;;;;;;;5.40;4.03;;;;;;;24.40;37.02;101737.53;5056945;28;20045;-83
2021/06/03 08:34:00;;;;;;;4.55;3.90;;;;;;;24.78;37.11;101736.09;5037765;28;20052;-80
2021/06/03 08:36:31;;;;;;;4.63;4.10;;;;;;;24.75;37.78;101739.03;5024141;28;20168;-82
2021/06/03 08:38:58;;;;;;;6.57;4.13;;;;;;;24.84;38.02;101747.41;5020385;28;20530;-80
2021/06/03 08:41:35;;;;;;;4.28;3.78;;;;;;;24.69;35.95;101733.03;5038814;28;20089;-81
2021/06/03 08:44:03;;;;;;;4.95;3.60;;;;;;;23.80;34.13;101742.06;5017885;28;20052;-82
2021/06/03 08:46:33;;;;;;;6.10;3.47;;;;;;;24.16;35.28;101747.09;5054543;28;20112;-83
2021/06/03 08:49:02;;;;;;;4.72;3.72;;;;;;;24.31;36.80;101740.78;5021980;28;20045;-81
2021/06/03 08:51:46;;;;;;;8.02;4.20;;;;;;;24.61;34.48;101746.13;5057596;28;20116;-82
2021/06/03 08:54:13;;;;;;;7.28;4.20;;;;;;;24.81;35.79;101744.03;5041201;28;20059;-81
2021/06/03 08:56:39;;;;;;;4.28;3.47;;;;;;;24.80;33.18;101747.69;5037854;28;20052;-81
2021/06/03 08:59:09;;;;;;;5.10;3.75;;;;;;;24.56;34.60;101740.16;5037026;28;20072;-80
2021/06/03 09:01:41;;;;;;;6.28;3.58;;;;;;;24.69;35.65;101746.53;5022736;28;20544;-82
2021/06/03 09:04:08;;;;;;;5.75;3.88;;;;;;;24.97;31.65;101750.19;5021149;28;20045;-83
2021/06/03 09:06:34;;;;;;;4.70;3.35;;;;;;;24.71;32.70;101744.59;5018959;28;20036;-82
2021/06/03 09:09:04;;;;;;;4.85;3.60;;;;;;;24.95;33.29;101730.50;5019017;28;20110;-82
2021/06/03 09:11:32;;;;;;;3.90;3.30;;;;;;;25.12;34.90;101737.56;5033398;28;20045;-85
2021/06/03 09:14:05;;;;;;;5.22;3.40;;;;;;;24.94;31.54;101734.19;5047608;28;20064;-86
2021/06/03 09:16:34;;;;;;;4.93;3.43;;;;;;;24.23;33.07;101723.31;5033220;28;20379;-84
2021/06/03 09:19:12;;;;;;;4.20;3.42;;;;;;;24.48;35.69;101733.50;5020230;28;20489;-83
2021/06/03 09:21:52;;;;;;;4.35;3.85;;;;;;;24.50;31.62;101739.69;5034206;28;20041;-83
2021/06/03 09:24:20;;;;;;;5.13;3.33;;;;;;;24.78;33.82;101728.00;5034997;28;20049;-85
2021/06/03 09:26:49;;;;;;;5.18;3.47;;;;;;;24.55;32.38;101722.22;5050773;28;20049;-81
2021/06/03 09:29:30;;;;;;;4.10;3.67;;;;;;;24.99;34.08;101724.81;5022234;28;20055;-83
2021/06/03 09:32:09;;;;;;;4.80;3.75;;;;;;;25.32;31.81;101718.22;5055064;28;20029;-85
2021/06/03 09:34:41;;;;;;;4.47;3.55;;;;;;;25.72;33.00;101726.41;5016001;28;20088;-84
2021/06/03 09:37:09;;;;;;;6.10;3.13;;;;;;;25.76;33.31;101722.53;5017295;28;20053;-85
2021/06/03 09:39:40;;;;;;;4.40;3.40;;;;;;;25.78;32.08;101717.88;5018540;28;20501;-83
2021/06/03 09:42:19;;;;;;;5.32;4.13;;;;;;;25.88;31.72;101715.41;5053957;28;20045;-86
2021/06/03 09:44:56;;;;;;;3.80;3.40;;;;;;;26.03;31.42;101709.81;5027983;28;20625;-80
2021/06/03 09:47:34;;;;;;;7.03;3.50;;;;;;;25.85;33.02;101711.09;5069882;28;20524;-82
2021/06/03 09:50:01;;;;;;;3.80;3.50;;;;;;;25.49;31.49;101709.00;5055109;28;20033;-83
2021/06/03 09:52:29;;;;;;;6.03;3.92;;;;;;;25.48;29.85;101713.53;5041705;28;20094;-82
2021/06/03 09:55:05;;;;;;;4.55;3.55;;;;;;;25.65;30.82;101712.41;5037057;28;20103;-81
2021/06/03 09:57:37;;;;;;;4.53;3.55;;;;;;;25.43;30.16;101709.38;5021775;28;20126;-83
2021/06/03 10:00:08;;;;;;;5.20;3.40;;;;;;;25.76;32.00;101699.03;5027355;28;21122;-81
2021/06/03 10:02:36;;;;;;;3.78;3.17;;;;;;;26.04;31.05;101702.56;5014957;28;20072;-81
2021/06/03 10:05:20;;;;;;;8.23;3.40;;;;;;;26.16;30.57;101706.28;5034580;28;20048;-79
2021/06/03 10:07:57;;;;;;;3.42;3.13;;;;;;;25.94;30.66;101715.00;5045050;28;20067;-80
2021/06/03 10:10:26;;;;;;;4.35;3.30;;;;;;;25.41;29.21;101705.94;5027960;28;20115;-79
2021/06/03 10:12:53;;;;;;;3.85;3.08;;;;;;;25.27;29.73;101702.28;5054243;28;20029;-78
2021/06/03 10:15:20;;;;;;;9.35;3.85;;;;;;;25.55;31.76;101698.59;5024401;28;20076;-80
2021/06/03 10:17:51;;;;;;;3.92;3.53;;;;;;;25.57;30.34;101700.38;5047182;28;20041;-81
2021/06/03 10:20:35;;;;;;;4.28;3.25;;;;;;;25.89;30.02;101698.19;5033806;28;20053;-81
2021/06/03 10:23:02;;;;;;;;;;;;;;;25.89;30.89;101688.22;5053681;28;20045;-83
2021/06/03 10:25:30;;;;;;;4.88;3.60;;;;;;;26.03;32.40;101681.88;5028354;28;20344;-83
2021/06/03 10:28:03;;;;;;;5.38;3.92;;;;;;;26.17;33.22;101692.63;5029614;28;20768;-82
2021/06/03 10:30:35;;;;;;;3.70;3.28;;;;;;;26.07;31.28;101694.25;5052270;28;20387;-81
2021/06/03 10:33:08;;;;;;;4.60;3.53;;;;;;;26.02;31.65;101696.41;5041670;28;20044;-80
2021/06/03 10:35:40;;;;;;;4.70;3.47;;;;;;;26.52;31.60;101687.47;5048702;28;20505;-81
2021/06/03 10:38:08;;;;;;;4.43;3.13;;;;;;;26.30;29.38;101698.91;5051338;28;20083;-79
2021/06/03 10:40:39;;;;;;;3.90;3.53;;;;;;;26.05;31.42;101694.31;5047210;28;20044;-80
2021/06/03 10:43:08;;;;;;;3.60;3.30;;;;;;;25.73;29.28;101699.25;5030362;28;20047;-81
2021/06/03 10:45:37;;;;;;;5.40;3.15;;;;;;;25.32;29.40;101703.84;5034865;28;20041;-79
2021/06/03 10:48:04;;;;;;;6.70;3.90;;;;;;;25.23;29.31;101687.25;5020289;28;20403;-78
2021/06/03 10:50:39;;;;;;;4.00;3.38;;;;;;;25.27;30.93;101683.34;5033543;28;20090;-78
2021/06/03 10:53:08;;;;;;;4.13;3.42;;;;;;;25.38;31.37;101679.06;5033567;28;20044;-78
2021/06/03 10:55:46;;;;;;;6.70;3.90;;;;;;;25.86;30.90;101682.19;5049514;28;20331;-77
2021/06/03 10:58:18;;;;;;;11.50;4.55;;;;;;;25.99;30.52;101677.66;5049555;28;20037;-79
2021/06/03 11:00:49;;;;;;;4.90;3.63;;;;;;;25.81;30.38;101679.75;5011345;28;20045;-79
2021/06/03 11:03:26;;;;;;;4.15;3.53;;;;;;;25.71;29.54;101684.94;5027121;28;20041;-80
2021/06/03 11:06:02;;;;;;;5.10;3.55;;;;;;;25.82;30.20;101678.81;5016253;28;20045;-79
2021/06/03 11:08:33;;;;;;;4.05;3.20;;;;;;;26.27;32.53;101682.00;5047149;28;20045;-79
2021/06/03 11:11:09;;;;;;;4.70;3.25;;;;;;;26.60;29.68;101674.22;5032929;28;20057;-78
2021/06/03 11:13:48;;;;;;;3.60;3.30;;;;;;;26.88;30.39;101677.66;5065020;28;20045;-79
2021/06/03 11:16:16;;;;;;;6.07;3.42;;;;;;;26.13;29.02;101682.09;5047028;28;20041;-80
2021/06/03 11:18:49;;;;;;;3.80;3.38;;;;;;;25.86;29.94;101668.63;5017201;28;20116;-79
2021/06/03 11:21:32;;;;;;;4.40;3.70;;;;;;;26.22;30.42;101676.03;5049669;28;20048;-81
2021/06/03 11:24:04;;;;;;;95.95;12.48;;;;;;;26.37;30.43;101661.41;5051011;28;20072;-81
2021/06/03 11:26:37;;;;;;;6.53;3.90;;;;;;;26.77;31.34;101664.88;5045623;28;20037;-81
2021/06/03 11:29:18;;;;;;;5.70;3.58;;;;;;;26.84;29.20;101662.59;5030268;28;20049;-80
2021/06/03 11:32:06;;;;;;;4.93;3.22;;;;;;;26.37;29.11;101669.53;5050300;28;20045;-81
2021/06/03 11:34:40;;;;;;;3.42;3.13;;;;;;;26.08;28.38;101661.63;5052530;28;20055;-79
2021/06/03 11:37:22;;;;;;;4.05;3.40;;;;;;;26.53;29.80;101672.06;5033001;28;20628;-79